Time;durP1;ratioP1;P1;durP2;ratioP2;P2;SDS_P1;SDS_P2;PMS_P1;PMS_P2;Temp;Humidity;BMP_temperature;BMP_pressure;BME280_temperature;BME280_humidity;BME280_pressure;Samples;Min_cycle;Max_cycle;Signal;HPM_P1;HPM_P2
2022/04/07 00:02:11;;;;;;;2.33;1.63;;;8.50;99.90;;;;;;5070700;28;20113;-89
2022/04/07 00:04:37;;;;;;;2.60;1.88;;;8.40;99.90;;;;;;5050863;28;20030;-88
2022/04/07 00:07:02;;;;;;;1.98;1.33;;;8.30;99.90;;;;;;5053655;28;20060;-89
2022/04/07 00:09:28;;;;;;;2.00;1.40;;;8.40;99.90;;;;;;5049633;28;20108;-88
2022/04/07 00:11:54;;;;;;;2.15;1.48;;;8.40;99.90;;;;;;5026882;28;20029;-88
2022/04/07 00:14:19;;;;;;;3.30;1.38;;;8.40;99.90;;;;;;4993713;28;20037;-87
2022/04/07 00:16:45;;;;;;;2.35;1.45;;;8.40;99.90;;;;;;5033548;28;20033;-88
2022/04/07 00:19:11;;;;;;;2.40;1.30;;;8.30;99.90;;;;;;5029850;28;20072;-88
2022/04/07 00:21:38;;;;;;;2.53;1.35;;;8.40;99.90;;;;;;5030329;28;20465;-88
2022/04/07 00:24:05;;;;;;;2.13;1.48;;;8.40;99.90;;;;;;5036775;28;20061;-88
2022/04/07 00:26:31;;;;;;;2.08;1.30;;;8.50;99.90;;;;;;5016733;28;20756;-87
2022/04/07 00:28:57;;;;;;;2.22;1.50;;;8.40;99.90;;;;;;5017670;28;20113;-89
2022/04/07 00:31:23;;;;;;;2.53;1.80;;;8.30;99.90;;;;;;5014317;28;20037;-90
2022/04/07 00:33:48;;;;;;;2.47;1.83;;;8.30;99.90;;;;;;5014128;28;20032;-88
2022/04/07 00:36:14;;;;;;;2.33;1.92;;;8.30;99.90;;;;;;5032763;28;20634;-89
2022/04/07 00:38:40;;;;;;;2.38;1.77;;;8.30;99.90;;;;;;5011604;28;20057;-89
2022/04/07 00:41:05;;;;;;;2.45;1.58;;;8.20;99.90;;;;;;5024769;28;20072;-89
2022/04/07 00:43:33;;;;;;;2.97;1.80;;;8.20;99.90;;;;;;5044317;28;20086;-89
2022/04/07 00:46:00;;;;;;;2.50;1.60;;;8.20;99.90;;;;;;5014027;28;20048;-89
2022/04/07 00:48:27;;;;;;;2.90;1.80;;;8.20;99.90;;;;;;5042773;28;20520;-88
2022/04/07 00:50:56;;;;;;;1.85;1.40;;;8.30;99.90;;;;;;5044474;28;20025;-88
2022/04/07 00:53:23;;;;;;;2.92;1.58;;;8.20;99.90;;;;;;5038297;28;20389;-88
2022/04/07 00:55:53;;;;;;;1.95;1.40;;;8.20;99.90;;;;;;5047129;28;20025;-89
2022/04/07 00:58:19;;;;;;;2.83;1.80;;;8.10;99.90;;;;;;5037409;28;20182;-89
2022/04/07 01:00:45;;;;;;;2.55;1.63;;;8.10;99.90;;;;;;5030915;28;20376;-89
2022/04/07 01:03:12;;;;;;;2.67;1.60;;;8.20;99.90;;;;;;5014548;28;20041;-89
2022/04/07 01:05:38;;;;;;;2.67;1.73;;;8.20;99.90;;;;;;5028556;28;20089;-89
2022/04/07 01:08:08;;;;;;;2.83;1.77;;;8.30;99.90;;;;;;5047705;28;20032;-89
2022/04/07 01:10:34;;;;;;;4.87;1.40;;;8.30;99.90;;;;;;5030455;28;20033;-88
2022/04/07 01:12:59;;;;;;;2.85;1.45;;;8.30;99.90;;;;;;5012177;28;20025;-89
2022/04/07 01:15:25;;;;;;;2.78;1.55;;;8.30;99.90;;;;;;5026543;28;20040;-89
2022/04/07 01:17:51;;;;;;;2.08;1.50;;;8.40;99.90;;;;;;5022751;28;20033;-88
2022/04/07 01:20:17;;;;;;;2.30;1.70;;;8.30;99.90;;;;;;5030331;28;20228;-88
2022/04/07 01:22:46;;;;;;;3.13;1.60;;;8.30;99.90;;;;;;5026037;28;20033;-89
2022/04/07 01:25:13;;;;;;;2.15;1.60;;;8.20;99.90;;;;;;5024584;28;20121;-88
2022/04/07 01:27:39;;;;;;;1.85;1.40;;;8.20;99.90;;;;;;5045955;28;20029;-88
2022/04/07 01:30:10;;;;;;;2.17;1.30;;;8.30;99.90;;;;;;5045301;28;20033;-90
2022/04/07 01:32:43;;;;;;;2.50;1.15;;;8.20;99.90;;;;;;5023085;28;20036;-88
2022/04/07 01:35:10;;;;;;;1.40;1.10;;;8.20;99.90;;;;;;5036151;28;20057;-89
2022/04/07 01:37:38;;;;;;;1.63;1.17;;;8.20;99.90;;;;;;5040229;28;20062;-87
2022/04/07 01:40:06;;;;;;;1.63;1.33;;;8.30;99.90;;;;;;5042604;28;20132;-89
2022/04/07 01:42:33;;;;;;;1.50;1.40;;;8.20;99.90;;;;;;5044420;28;20033;-89
2022/04/07 01:45:02;;;;;;;2.55;1.25;;;8.20;99.90;;;;;;5018237;28;20633;-89
2022/04/07 01:47:28;;;;;;;1.60;1.23;;;8.10;99.90;;;;;;5017291;28;20546;-89
2022/04/07 01:50:02;;;;;;;2.40;1.20;;;8.10;99.90;;;;;;5013399;28;20025;-89
2022/04/07 01:52:29;;;;;;;1.67;1.02;;;8.10;99.90;;;;;;5049610;28;20041;-89
2022/04/07 01:54:57;;;;;;;2.63;1.30;;;8.20;99.90;;;;;;5019284;28;20443;-89
2022/04/07 01:57:23;;;;;;;1.98;1.45;;;8.20;99.90;;;;;;5026278;28;20035;-89
2022/04/07 01:59:52;;;;;;;1.88;1.27;;;8.10;99.90;;;;;;5051389;28;20029;-88
2022/04/07 02:02:19;;;;;;;2.30;1.40;;;8.00;99.90;;;;;;5044786;28;20052;-89
2022/04/07 02:05:15;;;;;;;1.73;1.23;;;7.90;99.90;;;;;;5015873;28;20101;-89
2022/04/07 02:07:43;;;;;;;1.98;1.30;;;7.90;99.90;;;;;;5018499;28;20048;-89
2022/04/07 02:10:10;;;;;;;3.22;1.98;;;7.80;99.90;;;;;;5053451;28;20104;-89
2022/04/07 02:12:39;;;;;;;2.65;1.30;;;7.80;99.90;;;;;;4997378;28;20026;-89
2022/04/07 02:15:06;;;;;;;2.58;1.08;;;7.80;99.90;;;;;;5032896;28;20056;-89
2022/04/07 02:17:32;;;;;;;2.10;1.17;;;7.80;99.90;;;;;;5032921;28;20095;-89
2022/04/07 02:19:59;;;;;;;2.08;1.30;;;7.80;99.90;;;;;;5034040;28;20026;-89
2022/04/07 02:22:28;;;;;;;3.35;1.45;;;7.60;99.90;;;;;;5003907;28;20033;-89
2022/04/07 02:24:55;;;;;;;1.35;0.88;;;7.50;99.90;;;;;;5051753;28;20421;-88
2022/04/07 02:27:20;;;;;;;3.70;1.42;;;7.40;99.90;;;;;;5034859;28;20542;-88
2022/04/07 02:29:46;;;;;;;1.27;0.90;;;7.40;99.90;;;;;;5050858;28;20033;-88
2022/04/07 02:32:11;;;;;;;1.98;1.30;;;7.40;99.90;;;;;;5034981;28;20433;-89
2022/04/07 02:34:41;;;;;;;1.98;1.00;;;7.40;99.90;;;;;;5018358;28;20105;-89
2022/04/07 02:37:07;;;;;;;1.00;0.82;;;7.40;99.90;;;;;;5032828;28;20037;-86
2022/04/07 02:39:32;;;;;;;1.25;0.88;;;7.40;99.90;;;;;;5047550;28;20502;-87
2022/04/07 02:41:58;;;;;;;1.60;0.98;;;7.40;99.90;;;;;;5030174;28;20073;-87
2022/04/07 02:44:24;;;;;;;1.52;0.80;;;7.50;99.90;;;;;;4999740;28;20417;-88
2022/04/07 02:46:50;;;;;;;0.90;0.68;;;7.60;99.90;;;;;;5013473;28;20433;-88
2022/04/07 02:49:17;;;;;;;1.42;1.00;;;7.60;99.90;;;;;;5013054;28;20156;-88
2022/04/07 02:51:45;;;;;;;0.95;0.60;;;7.60;99.90;;;;;;5035741;28;20476;-88
2022/04/07 02:54:11;;;;;;;2.00;1.15;;;7.60;99.90;;;;;;5039705;28;20065;-88
2022/04/07 02:56:36;;;;;;;1.85;0.70;;;7.60;99.90;;;;;;5051019;28;20110;-87
2022/04/07 02:59:02;;;;;;;2.17;0.88;;;7.70;99.90;;;;;;5051171;28;20502;-89
2022/04/07 03:01:28;;;;;;;0.95;0.70;;;7.60;99.90;;;;;;5033627;28;20046;-88
2022/04/07 03:03:55;;;;;;;1.45;0.80;;;7.60;99.90;;;;;;5040183;28;20045;-89
2022/04/07 03:06:24;;;;;;;1.80;1.10;;;7.50;99.90;;;;;;5047514;28;20020;-88
2022/04/07 03:08:50;;;;;;;1.88;1.05;;;7.50;99.90;;;;;;5037764;28;20029;-88
2022/04/07 03:11:17;;;;;;;2.58;0.95;;;7.40;99.90;;;;;;5032259;28;20017;-88
2022/04/07 03:13:42;;;;;;;1.70;1.13;;;7.40;99.90;;;;;;5014061;28;20026;-90
2022/04/07 03:16:08;;;;;;;3.10;0.95;;;7.40;99.90;;;;;;5022063;28;20036;-89
2022/04/07 03:18:35;;;;;;;1.98;0.77;;;7.50;99.90;;;;;;5016496;28;20109;-88
2022/04/07 03:21:01;;;;;;;0.73;0.65;;;7.40;99.90;;;;;;5035029;28;20040;-88
2022/04/07 03:23:27;;;;;;;0.65;0.50;;;7.30;99.90;;;;;;5038730;28;20376;-89
2022/04/07 03:25:53;;;;;;;1.63;1.10;;;7.30;99.90;;;;;;5039638;28;20029;-89
2022/04/07 03:28:18;;;;;;;1.30;0.75;;;7.40;99.90;;;;;;5040417;28;20037;-88
2022/04/07 03:30:44;;;;;;;1.38;0.85;;;7.20;99.90;;;;;;5028763;28;20040;-89
2022/04/07 03:33:10;;;;;;;1.67;0.93;;;7.20;99.90;;;;;;5043939;28;20179;-91
2022/04/07 03:35:39;;;;;;;1.08;0.73;;;7.20;99.90;;;;;;5044283;28;20167;-89
2022/04/07 03:38:08;;;;;;;2.92;1.30;;;7.10;99.90;;;;;;5038395;28;20060;-89
2022/04/07 03:40:35;;;;;;;1.23;0.70;;;7.10;99.90;;;;;;5038050;28;20040;-88
2022/04/07 03:43:01;;;;;;;3.15;0.90;;;7.00;99.90;;;;;;5013810;28;20065;-89
2022/04/07 03:45:27;;;;;;;1.38;0.70;;;7.00;99.90;;;;;;5027916;28;20136;-90
2022/04/07 03:47:53;;;;;;;9.45;1.58;;;6.90;99.90;;;;;;5042209;28;20033;-89
2022/04/07 03:50:18;;;;;;;1.35;1.25;;;7.00;99.90;;;;;;5029558;28;20092;-90
2022/04/07 03:52:44;;;;;;;1.08;0.70;;;7.00;99.90;;;;;;5032808;28;20349;-90
2022/04/07 03:55:10;;;;;;;2.63;1.70;;;6.80;99.90;;;;;;5034158;28;20485;-90
2022/04/07 03:57:35;;;;;;;1.83;0.88;;;6.80;99.90;;;;;;4997953;28;20025;-90
2022/04/07 04:00:04;;;;;;;2.17;0.98;;;6.90;99.90;;;;;;5013698;28;20036;-90
2022/04/07 04:02:29;;;;;;;2.90;1.00;;;6.80;99.90;;;;;;5044960;28;20048;-88
2022/04/07 04:04:55;;;;;;;0.93;0.75;;;6.90;99.90;;;;;;5021836;28;20030;-89
2022/04/07 04:07:21;;;;;;;0.85;0.68;;;6.90;99.90;;;;;;5039205;28;20065;-88
2022/04/07 04:09:47;;;;;;;0.85;0.75;;;6.90;99.90;;;;;;5043166;28;20036;-89
2022/04/07 04:12:13;;;;;;;1.17;0.70;;;6.90;99.90;;;;;;5043830;28;20033;-89
2022/04/07 04:14:39;;;;;;;1.50;0.77;;;7.00;99.90;;;;;;5030802;28;20021;-89
2022/04/07 04:17:04;;;;;;;1.90;0.60;;;7.00;99.90;;;;;;5011085;28;20069;-89
2022/04/07 04:19:30;;;;;;;1.15;0.65;;;7.10;99.90;;;;;;5017262;28;20029;-91
2022/04/07 04:21:56;;;;;;;1.85;0.70;;;7.20;99.90;;;;;;5043786;28;20029;-89
2022/04/07 04:24:22;;;;;;;4.72;0.73;;;7.30;99.90;;;;;;5030378;28;20029;-88
2022/04/07 04:26:48;;;;;;;2.13;0.60;;;7.20;99.90;;;;;;5044160;28;20033;-90
2022/04/07 04:29:13;;;;;;;1.58;0.50;;;7.20;99.90;;;;;;5041719;28;20029;-88
2022/04/07 04:31:39;;;;;;;0.80;0.70;;;7.30;99.90;;;;;;5018628;28;20029;-90
2022/04/07 04:34:04;;;;;;;1.65;0.98;;;7.20;99.90;;;;;;5032787;28;20029;-90
2022/04/07 04:36:32;;;;;;;0.88;0.75;;;7.30;99.90;;;;;;5030296;28;20032;-88
2022/04/07 04:38:58;;;;;;;0.70;0.60;;;7.30;99.90;;;;;;5031741;28;20639;-88
2022/04/07 04:41:23;;;;;;;1.90;1.05;;;7.30;99.90;;;;;;5036140;28;20069;-89
2022/04/07 04:43:49;;;;;;;0.88;0.60;;;7.30;99.90;;;;;;5039628;28;20033;-89
2022/04/07 04:46:15;;;;;;;0.50;0.50;;;7.20;99.90;;;;;;5045521;28;20060;-87
2022/04/07 04:48:40;;;;;;;1.25;0.70;;;7.20;99.90;;;;;;5017255;28;20029;-88
2022/04/07 04:51:06;;;;;;;0.80;0.70;;;7.20;99.90;;;;;;5015105;28;20026;-89
2022/04/07 04:53:31;;;;;;;1.40;0.95;;;7.20;99.90;;;;;;5036622;28;20037;-89
2022/04/07 04:55:57;;;;;;;1.42;0.82;;;7.10;99.90;;;;;;5048619;28;20033;-90
2022/04/07 04:58:23;;;;;;;1.17;0.88;;;7.10;99.90;;;;;;5041967;28;20038;-91
2022/04/07 05:00:49;;;;;;;1.55;0.70;;;7.20;99.90;;;;;;5023965;28;20117;-89
2022/04/07 05:03:15;;;;;;;1.90;0.82;;;7.40;99.90;;;;;;5031226;28;20053;-88
2022/04/07 05:05:40;;;;;;;2.70;0.77;;;7.30;99.90;;;;;;5039000;28;20053;-87
2022/04/07 05:08:06;;;;;;;1.35;0.80;;;7.30;99.90;;;;;;5055800;28;20028;-89
2022/04/07 05:10:32;;;;;;;1.92;1.00;;;7.30;99.90;;;;;;5051395;28;20073;-90
2022/04/07 05:12:58;;;;;;;2.30;1.23;;;7.40;99.90;;;;;;5042419;28;20186;-90
2022/04/07 05:15:24;;;;;;;2.63;1.05;;;7.30;99.90;;;;;;5046925;28;20033;-89
2022/04/07 05:17:51;;;;;;;2.28;0.77;;;7.40;99.90;;;;;;5040559;28;20369;-89
2022/04/07 05:20:17;;;;;;;0.82;0.80;;;7.40;99.90;;;;;;5040147;28;20086;-88
2022/04/07 05:22:43;;;;;;;1.70;1.05;;;7.40;99.90;;;;;;5023349;28;20409;-88
2022/04/07 05:25:10;;;;;;;0.85;0.80;;;7.50;99.90;;;;;;5025711;28;20022;-85
2022/04/07 05:27:36;;;;;;;1.25;0.80;;;7.50;99.90;;;;;;5043746;28;20087;-86
2022/04/07 05:30:15;;;;;;;1.02;0.80;;;7.60;99.90;;;;;;5045599;28;20021;-87
2022/04/07 05:32:45;;;;;;;1.80;1.00;;;7.70;99.90;;;;;;5066837;28;20041;-87
2022/04/07 05:35:12;;;;;;;1.17;0.50;;;7.80;99.90;;;;;;5036891;28;20088;-86
2022/04/07 05:37:38;;;;;;;0.70;0.60;;;7.80;99.90;;;;;;5042567;28;20031;-86
2022/04/07 05:40:05;;;;;;;0.82;0.70;;;7.80;99.90;;;;;;5025922;28;20037;-86
2022/04/07 05:42:31;;;;;;;1.20;0.75;;;7.90;99.90;;;;;;5034812;28;20036;-85
2022/04/07 05:44:57;;;;;;;0.88;0.45;;;7.90;99.90;;;;;;5032855;28;20061;-86
2022/04/07 05:47:23;;;;;;;0.77;0.77;;;8.00;99.90;;;;;;5024182;28;20069;-87
2022/04/07 05:49:48;;;;;;;0.70;0.70;;;7.90;99.90;;;;;;5036911;28;20109;-86
2022/04/07 05:52:14;;;;;;;0.68;0.50;;;7.90;99.90;;;;;;5033019;28;20109;-87
2022/04/07 05:54:40;;;;;;;2.63;0.73;;;7.80;99.90;;;;;;5024673;28;20485;-87
2022/04/07 05:57:06;;;;;;;2.50;0.57;;;7.80;99.90;;;;;;5038868;28;20029;-87
2022/04/07 05:59:32;;;;;;;0.40;0.40;;;7.70;99.90;;;;;;5037952;28;20495;-87
2022/04/07 06:01:57;;;;;;;0.82;0.40;;;7.70;99.90;;;;;;5041947;28;20029;-87
2022/04/07 06:04:23;;;;;;;0.90;0.50;;;7.80;99.90;;;;;;5038680;28;20048;-86
2022/04/07 06:06:48;;;;;;;0.60;0.55;;;7.90;99.90;;;;;;5038543;28;20852;-86
2022/04/07 06:09:14;;;;;;;0.40;0.40;;;7.90;99.90;;;;;;5039836;28;20079;-86
2022/04/07 06:11:40;;;;;;;1.40;0.50;;;8.00;99.90;;;;;;5040831;28;20025;-86
2022/04/07 06:14:06;;;;;;;0.90;0.60;;;8.10;99.90;;;;;;5033709;28;20104;-86
2022/04/07 06:16:32;;;;;;;1.27;0.50;;;8.20;99.90;;;;;;5037436;28;20428;-87
2022/04/07 06:18:57;;;;;;;1.13;0.57;;;8.30;99.90;;;;;;5042325;28;20180;-86
2022/04/07 06:21:24;;;;;;;0.75;0.60;;;8.30;99.90;;;;;;5034720;28;20484;-85
2022/04/07 06:23:50;;;;;;;1.73;0.55;;;8.30;99.90;;;;;;5038184;28;20766;-87
2022/04/07 06:26:17;;;;;;;0.60;0.47;;;8.40;99.30;;;;;;5043583;28;20459;-87
2022/04/07 06:28:42;;;;;;;0.50;0.40;;;8.40;99.40;;;;;;5050258;28;20056;-86
2022/04/07 06:31:09;;;;;;;1.23;0.50;;;8.50;99.00;;;;;;5040972;28;20029;-85
2022/04/07 06:33:34;;;;;;;0.40;0.40;;;8.60;99.00;;;;;;5029480;28;20040;-87
2022/04/07 06:36:02;;;;;;;0.30;0.30;;;8.70;99.60;;;;;;5058867;28;20037;-87
2022/04/07 06:38:30;;;;;;;0.60;0.40;;;8.80;98.40;;;;;;5050454;28;20033;-86
2022/04/07 06:40:56;;;;;;;0.35;0.30;;;8.80;97.60;;;;;;5019993;28;20510;-86
2022/04/07 06:43:22;;;;;;;0.75;0.50;;;8.90;98.00;;;;;;5037438;28;20131;-86
2022/04/07 06:45:48;;;;;;;0.45;0.45;;;8.90;96.60;;;;;;5041540;28;20037;-87
2022/04/07 06:48:14;;;;;;;0.98;0.50;;;9.00;96.30;;;;;;5040925;28;20458;-85
2022/04/07 06:50:39;;;;;;;2.60;1.75;;;9.10;96.80;;;;;;5035311;28;20031;-87
2022/04/07 06:53:05;;;;;;;1.00;0.60;;;9.20;95.20;;;;;;5032196;28;20492;-85
2022/04/07 06:55:31;;;;;;;0.60;0.40;;;9.30;95.30;;;;;;5046627;28;20960;-86
2022/04/07 06:57:56;;;;;;;0.60;0.40;;;9.40;94.20;;;;;;5029907;28;20393;-86
2022/04/07 07:00:29;;;;;;;1.42;0.57;;;9.30;94.30;;;;;;5037544;28;20029;-86
2022/04/07 07:02:56;;;;;;;0.43;0.43;;;9.30;95.10;;;;;;5032880;28;20053;-87
2022/04/07 07:05:24;;;;;;;1.33;0.55;;;9.30;94.00;;;;;;5053382;28;20032;-86
2022/04/07 07:07:50;;;;;;;0.30;0.30;;;9.10;95.50;;;;;;5055212;28;20727;-87
2022/04/07 07:10:24;;;;;;;0.30;0.30;;;9.10;95.00;;;;;;5052628;28;20029;-87
2022/04/07 07:12:51;;;;;;;1.42;0.50;;;9.10;94.10;;;;;;5044394;28;20026;-87
2022/04/07 07:15:17;;;;;;;0.32;0.30;;;9.10;93.90;;;;;;5033692;28;20053;-87
2022/04/07 07:17:43;;;;;;;0.75;0.50;;;9.10;94.30;;;;;;5022267;28;20033;-85
2022/04/07 07:20:11;;;;;;;0.30;0.30;;;9.20;93.90;;;;;;5033519;28;20083;-87
2022/04/07 07:22:40;;;;;;;0.80;0.50;;;9.30;93.80;;;;;;5046540;28;20038;-86
2022/04/07 07:25:07;;;;;;;0.30;0.30;;;9.30;92.40;;;;;;5045997;28;20037;-86
2022/04/07 07:27:41;;;;;;;0.57;0.40;;;9.40;93.20;;;;;;5051791;28;20029;-87
2022/04/07 07:30:11;;;;;;;3.03;0.40;;;9.50;92.30;;;;;;5024157;28;20026;-86
2022/04/07 07:32:42;;;;;;;0.60;0.40;;;9.50;92.10;;;;;;5045166;28;20059;-86
2022/04/07 07:35:09;;;;;;;1.40;0.52;;;9.60;92.00;;;;;;5042282;28;20017;-87
2022/04/07 07:37:36;;;;;;;2.40;0.50;;;9.70;90.90;;;;;;5040925;28;20112;-86
2022/04/07 07:40:06;;;;;;;0.68;0.50;;;9.80;90.30;;;;;;5027931;28;20049;-87
2022/04/07 07:42:32;;;;;;;0.60;0.40;;;10.00;90.50;;;;;;5034533;28;20040;-87
2022/04/07 07:44:58;;;;;;;0.88;0.60;;;10.10;87.60;;;;;;5050823;28;20037;-86
2022/04/07 07:47:23;;;;;;;1.02;0.52;;;10.20;87.60;;;;;;5029380;28;20059;-87
2022/04/07 07:49:49;;;;;;;0.60;0.60;;;10.20;84.40;;;;;;5034700;28;20102;-86
2022/04/07 07:52:14;;;;;;;1.55;0.50;;;10.40;83.70;;;;;;5032944;28;20076;-88
2022/04/07 07:54:40;;;;;;;2.35;0.40;;;10.40;81.10;;;;;;5011604;28;20029;-86
2022/04/07 07:57:06;;;;;;;2.13;0.38;;;10.70;81.60;;;;;;5012754;28;20091;-86
2022/04/07 07:59:31;;;;;;;0.85;0.40;;;11.00;83.10;;;;;;5000536;28;20033;-87
2022/04/07 08:01:57;;;;;;;1.00;0.47;;;11.20;79.50;;;;;;5029316;28;20053;-86
2022/04/07 08:04:23;;;;;;;0.50;0.30;;;11.30;78.40;;;;;;5018911;28;20034;-86
2022/04/07 08:06:50;;;;;;;0.40;0.38;;;11.10;78.30;;;;;;5029816;28;20607;-87
2022/04/07 08:09:15;;;;;;;0.73;0.40;;;11.20;80.40;;;;;;5030863;28;20033;-86
2022/04/07 08:11:41;;;;;;;0.28;0.28;;;11.20;78.00;;;;;;5028738;28;20455;-86
2022/04/07 08:14:08;;;;;;;0.70;0.45;;;11.10;76.80;;;;;;5024783;28;20540;-87
2022/04/07 08:16:37;;;;;;;0.60;0.40;;;11.30;80.20;;;;;;5061110;28;20021;-87
2022/04/07 08:19:04;;;;;;;0.32;0.28;;;11.20;77.70;;;;;;5049145;28;20269;-86
2022/04/07 08:21:30;;;;;;;0.40;0.40;;;11.50;77.80;;;;;;5057215;28;20040;-86
2022/04/07 08:23:56;;;;;;;1.48;0.40;;;11.40;75.00;;;;;;5056972;28;20029;-87
2022/04/07 08:26:21;;;;;;;0.40;0.40;;;11.50;77.40;;;;;;5047463;28;20672;-85
2022/04/07 08:28:47;;;;;;;3.03;0.50;;;11.40;78.20;;;;;;5032906;28;20033;-87
2022/04/07 08:31:13;;;;;;;0.73;0.60;;;11.20;79.00;;;;;;5034263;28;20633;-87
2022/04/07 08:33:38;;;;;;;0.60;0.40;;;11.00;79.40;;;;;;5032690;28;20026;-85
2022/04/07 08:36:05;;;;;;;0.55;0.52;;;10.90;79.20;;;;;;5039902;28;20112;-87
2022/04/07 08:38:30;;;;;;;0.60;0.40;;;10.90;78.80;;;;;;5020388;28;20489;-86
2022/04/07 08:40:56;;;;;;;1.00;0.52;;;11.10;78.00;;;;;;5048373;28;20102;-87
2022/04/07 08:43:25;;;;;;;1.35;0.43;;;11.30;79.00;;;;;;5073113;28;20029;-86
2022/04/07 08:45:51;;;;;;;0.90;0.50;;;11.30;78.20;;;;;;5010994;28;20100;-87
2022/04/07 08:48:17;;;;;;;1.60;0.47;;;11.50;77.90;;;;;;5018369;28;20025;-86
2022/04/07 08:50:44;;;;;;;0.45;0.45;;;11.40;74.80;;;;;;5030533;28;20026;-86
2022/04/07 08:53:12;;;;;;;0.65;0.45;;;11.40;76.00;;;;;;5049430;28;20313;-86
2022/04/07 08:55:38;;;;;;;0.40;0.30;;;11.50;75.70;;;;;;5045803;28;20107;-87
2022/04/07 08:58:04;;;;;;;2.40;0.32;;;11.40;75.20;;;;;;5046646;28;20036;-86
2022/04/07 09:00:31;;;;;;;0.70;0.40;;;11.50;76.50;;;;;;5045757;28;20635;-85
2022/04/07 09:02:57;;;;;;;1.08;0.35;;;11.60;75.70;;;;;;5039211;28;20067;-86
2022/04/07 09:05:24;;;;;;;0.30;0.30;;;11.60;75.00;;;;;;5019273;28;20069;-87
2022/04/07 09:07:51;;;;;;;1.38;0.50;;;11.90;77.30;;;;;;5024953;28;20024;-87
2022/04/07 09:10:23;;;;;;;1.75;0.68;;;12.00;77.40;;;;;;5014881;28;20029;-86
2022/04/07 09:12:52;;;;;;;1.33;0.47;;;12.20;74.60;;;;;;5015274;28;20539;-86
2022/04/07 09:15:18;;;;;;;0.85;0.40;;;12.10;71.30;;;;;;5038256;28;20033;-87
2022/04/07 09:17:52;;;;;;;0.40;0.30;;;12.20;71.30;;;;;;5029651;28;20034;-86
2022/04/07 09:20:18;;;;;;;0.90;0.40;;;12.30;69.50;;;;;;5020639;28;20037;-85
2022/04/07 09:22:54;;;;;;;1.30;0.30;;;12.30;71.90;;;;;;5028166;28;20029;-85
2022/04/07 09:25:19;;;;;;;0.50;0.30;;;12.10;70.30;;;;;;5037769;28;20033;-85
2022/04/07 09:27:48;;;;;;;0.80;0.40;;;13.00;70.00;;;;;;5035115;28;20037;-87
2022/04/07 09:30:14;;;;;;;0.32;0.30;;;13.10;70.60;;;;;;5043079;28;20025;-86
2022/04/07 09:32:44;;;;;;;1.02;0.20;;;13.40;69.00;;;;;;5043986;28;20033;-87
2022/04/07 09:35:11;;;;;;;;;;;13.50;67.40;;;;;;5041549;28;20040;-86
2022/04/07 09:37:38;;;;;;;2.28;0.50;;;12.70;65.80;;;;;;5044209;28;19913;-86
2022/04/07 09:40:04;;;;;;;0.43;0.40;;;12.50;67.30;;;;;;5037077;28;20044;-85
2022/04/07 09:42:30;;;;;;;0.30;0.30;;;12.60;67.50;;;;;;5032747;28;20062;-86
2022/04/07 09:44:59;;;;;;;2.35;0.43;;;12.50;68.60;;;;;;5041033;28;20036;-86
2022/04/07 09:47:34;;;;;;;1.60;0.40;;;12.50;68.50;;;;;;5033357;28;20029;-86
2022/04/07 09:50:00;;;;;;;0.43;0.43;;;12.60;68.90;;;;;;5037078;28;20540;-85
2022/04/07 09:52:26;;;;;;;0.75;0.30;;;12.40;70.60;;;;;;5033584;28;20029;-86
2022/04/07 09:54:52;;;;;;;0.40;0.40;;;12.10;72.00;;;;;;5009116;28;20049;-86
2022/04/07 09:57:21;;;;;;;0.80;0.35;;;12.00;68.60;;;;;;5030864;28;20033;-86
2022/04/07 09:59:48;;;;;;;0.30;0.30;;;12.50;69.70;;;;;;5026215;28;20029;-87
2022/04/07 10:02:16;;;;;;;1.27;0.30;;;12.50;66.90;;;;;;5035513;28;20057;-87
2022/04/07 10:04:42;;;;;;;1.08;0.60;;;12.40;67.20;;;;;;5030848;28;20026;-86
2022/04/07 10:07:11;;;;;;;1.20;0.32;;;12.50;68.20;;;;;;5037167;28;20465;-87
2022/04/07 10:09:40;;;;;;;2.78;0.43;;;12.50;67.80;;;;;;5013298;28;20025;-86
2022/04/07 10:12:07;;;;;;;0.40;0.40;;;12.60;67.90;;;;;;5031298;28;20025;-86
2022/04/07 10:14:34;;;;;;;0.50;0.40;;;12.70;70.20;;;;;;5019686;28;20539;-87
2022/04/07 10:17:00;;;;;;;0.77;0.38;;;12.80;69.90;;;;;;5025497;28;20030;-86
2022/04/07 10:19:42;;;;;;;1.77;0.55;;;12.80;68.90;;;;;;5017962;28;20488;-86
2022/04/07 10:22:32;;;;;;;0.65;0.30;;;12.50;68.30;;;;;;5024271;28;20083;-86
2022/04/07 10:25:03;;;;;;;2.72;0.40;;;12.60;67.90;;;;;;5033227;28;20098;-89
2022/04/07 10:27:30;;;;;;;0.85;0.40;;;12.50;68.10;;;;;;5034760;28;20052;-87
2022/04/07 10:30:12;;;;;;;3.13;0.40;;;12.50;69.90;;;;;;5051340;28;20052;-85
2022/04/07 10:32:41;;;;;;;0.50;0.50;;;12.60;70.00;;;;;;5027594;28;20029;-87
2022/04/07 10:35:08;;;;;;;1.45;0.40;;;12.50;71.00;;;;;;5026329;28;20504;-87
2022/04/07 10:37:42;;;;;;;0.30;0.30;;;12.50;74.60;;;;;;5014891;28;20044;-88
2022/04/07 10:40:50;;;;;;;1.08;0.77;;;12.00;76.00;;;;;;5037738;28;20044;-87
2022/04/07 10:43:25;;;;;;;0.93;0.30;;;12.10;75.80;;;;;;5037758;28;20033;-88
2022/04/07 10:46:05;;;;;;;0.60;0.30;;;12.10;75.20;;;;;;5030102;28;20083;-87
2022/04/07 10:48:36;;;;;;;2.00;0.47;;;12.00;75.00;;;;;;5041445;28;20480;-87
2022/04/07 10:51:07;;;;;;;1.52;0.30;;;12.30;75.40;;;;;;5039555;28;20133;-87
2022/04/07 10:53:38;;;;;;;0.35;0.35;;;12.50;74.80;;;;;;5038485;28;20035;-87
2022/04/07 10:56:31;;;;;;;1.45;0.80;;;12.80;73.70;;;;;;5026768;28;20507;-86
2022/04/07 10:59:10;;;;;;;0.95;0.52;;;12.60;72.90;;;;;;5035453;28;20799;-86
2022/04/07 11:01:39;;;;;;;0.40;0.40;;;12.80;72.70;;;;;;5029376;28;20103;-86
2022/04/07 11:04:23;;;;;;;1.50;0.40;;;12.60;74.10;;;;;;5030952;28;20100;-86
2022/04/07 11:07:05;;;;;;;0.40;0.40;;;12.30;74.70;;;;;;5025734;28;20032;-85
2022/04/07 11:09:59;;;;;;;1.40;0.40;;;12.30;72.70;;;;;;5035480;28;21411;-85
2022/04/07 11:12:28;;;;;;;0.40;0.30;;;12.30;73.50;;;;;;5039166;28;20555;-86
2022/04/07 11:15:52;;;;;;;0.95;0.40;;;12.60;74.90;;;;;;5039197;28;20028;-84
2022/04/07 11:18:39;;;;;;;0.20;0.20;;;12.80;70.00;;;;;;4988193;28;20030;-87
2022/04/07 11:21:10;;;;;;;0.30;0.30;;;13.30;69.00;;;;;;4990735;28;20030;-87
2022/04/07 11:23:56;;;;;;;0.55;0.30;;;13.10;74.20;;;;;;5019809;28;20045;-87
2022/04/07 11:26:26;;;;;;;5.60;0.50;;;13.20;69.00;;;;;;5015787;28;20090;-87
2022/04/07 11:29:02;;;;;;;0.38;0.38;;;13.00;70.70;;;;;;5021630;28;20036;-87
2022/04/07 11:31:51;;;;;;;4.60;0.40;;;13.00;70.20;;;;;;5021208;28;20041;-87
2022/04/07 11:34:39;;;;;;;0.77;0.30;;;14.00;67.80;;;;;;5027188;28;20022;-86
2022/04/07 11:37:08;;;;;;;1.27;0.40;;;13.50;67.90;;;;;;5026182;28;20380;-86
2022/04/07 11:39:37;;;;;;;0.35;0.28;;;13.50;67.80;;;;;;5030716;28;20025;-86
2022/04/07 11:42:03;;;;;;;0.43;0.20;;;13.30;66.90;;;;;;5046710;28;20044;-87
2022/04/07 11:44:29;;;;;;;0.30;0.30;;;13.40;66.40;;;;;;5037550;28;20440;-87
2022/04/07 11:46:55;;;;;;;0.30;0.30;;;13.20;65.70;;;;;;5022255;28;20560;-86
2022/04/07 11:49:22;;;;;;;1.23;0.30;;;13.10;66.30;;;;;;5022778;28;20056;-86
2022/04/07 11:51:47;;;;;;;0.20;0.20;;;12.80;67.20;;;;;;5031728;28;20022;-88
2022/04/07 11:54:20;;;;;;;0.20;0.20;;;12.90;70.60;;;;;;5027031;28;20041;-85
2022/04/07 11:56:47;;;;;;;0.50;0.20;;;12.70;69.10;;;;;;5031123;28;20021;-84
2022/04/07 11:59:13;;;;;;;0.35;0.25;;;12.50;68.50;;;;;;5030294;28;20171;-86
2022/04/07 12:01:41;;;;;;;0.32;0.30;;;12.60;70.00;;;;;;5033317;28;20363;-84
2022/04/07 12:04:09;;;;;;;0.30;0.30;;;12.40;70.90;;;;;;5032509;28;20021;-87
2022/04/07 12:06:36;;;;;;;0.40;0.30;;;12.40;69.90;;;;;;5033024;28;20384;-86
2022/04/07 12:09:05;;;;;;;0.85;0.55;;;12.50;71.80;;;;;;5033636;28;20419;-85
2022/04/07 12:11:33;;;;;;;0.30;0.30;;;12.30;70.40;;;;;;5044559;28;20029;-85
2022/04/07 12:14:03;;;;;;;1.80;0.32;;;12.20;73.10;;;;;;5049498;28;20051;-85
2022/04/07 12:16:28;;;;;;;0.47;0.43;;;11.60;85.00;;;;;;5036298;28;20057;-85
2022/04/07 12:18:59;;;;;;;0.73;0.50;;;11.30;92.70;;;;;;5045497;28;20044;-84
2022/04/07 12:21:27;;;;;;;0.28;0.28;;;10.60;96.60;;;;;;5020012;28;20204;-84
2022/04/07 12:24:11;;;;;;;1.30;0.52;;;10.00;99.90;;;;;;5031323;28;20051;-85
2022/04/07 12:26:48;;;;;;;1.10;0.90;;;10.00;99.90;;;;;;5030445;28;20033;-85
2022/04/07 12:29:24;;;;;;;1.88;0.30;;;10.00;99.90;;;;;;5032398;28;20034;-85
2022/04/07 12:32:00;;;;;;;0.32;0.30;;;9.60;99.90;;;;;;5034632;28;20036;-85
2022/04/07 12:34:26;;;;;;;0.40;0.30;;;9.60;99.90;;;;;;5038312;28;20089;-85
2022/04/07 12:36:52;;;;;;;0.50;0.50;;;9.80;99.90;;;;;;5037536;28;20164;-84
2022/04/07 12:39:17;;;;;;;0.82;0.50;;;9.90;99.90;;;;;;5042322;28;20089;-83
2022/04/07 12:41:49;;;;;;;0.75;0.57;;;10.10;99.90;;;;;;5045680;28;20052;-87
2022/04/07 12:44:22;;;;;;;0.30;0.30;;;10.10;99.90;;;;;;5038269;28;20087;-85
2022/04/07 12:46:47;;;;;;;1.38;0.28;;;10.10;99.90;;;;;;5045189;28;20587;-86
2022/04/07 12:49:14;;;;;;;0.50;0.50;;;10.20;99.90;;;;;;5044541;28;20021;-86
2022/04/07 12:51:40;;;;;;;0.60;0.50;;;10.30;99.80;;;;;;5051079;28;20100;-85
2022/04/07 12:54:09;;;;;;;0.65;0.43;;;10.30;99.90;;;;;;5046058;28;20075;-85
2022/04/07 12:56:36;;;;;;;2.40;0.50;;;10.20;98.60;;;;;;5042270;28;20112;-84
2022/04/07 12:59:09;;;;;;;0.52;0.40;;;10.20;98.30;;;;;;5045063;28;20086;-84